Kandi Airport


Codes: DBBK/KDC
Name: Kandi Airport
City: Kandi
Country: Benin
Elevation: 951 ft.

Photos at Kandi Airport


   Photos courtesy of SpottingLog. You can add your own sightings and photos by signing up for a free trial today.



No photos found.

Weather at Kandi Airport


Time (UTC)DescriptionTempratureWindCloud coverageVisibilityPressureHumidity
26-Jun-2024 00:00Light Rain28°C4 mph, S66%10000m1009hPa63%
26-Jun-2024 03:00Light Rain26°C7 mph, SE86%10000m1010hPa76%
26-Jun-2024 06:00Overcast Clouds24°C7 mph, S100%10000m1011hPa88%
26-Jun-2024 09:00Overcast Clouds29°C9 mph, SW99%10000m1012hPa65%
26-Jun-2024 12:00Overcast Clouds34°C4 mph, SW99%10000m1010hPa46%
26-Jun-2024 15:00Broken Clouds35°C0 mph, NW78%10000m1007hPa40%
26-Jun-2024 18:00Overcast Clouds32°C0 mph, NE87%10000m1007hPa52%
26-Jun-2024 21:00Moderate Rain25°C7 mph, SW64%10000m1010hPa86%
27-Jun-2024 00:00Moderate Rain24°C7 mph, S76%10000m1011hPa91%
27-Jun-2024 03:00Overcast Clouds24°C7 mph, S100%10000m1010hPa90%
27-Jun-2024 06:00Overcast Clouds24°C7 mph, SW100%10000m1010hPa89%
27-Jun-2024 09:00Overcast Clouds28°C9 mph, SW87%10000m1011hPa69%
27-Jun-2024 12:00Overcast Clouds33°C7 mph, SW91%10000m1009hPa49%
27-Jun-2024 15:00Overcast Clouds35°C4 mph, S85%10000m1008hPa43%
27-Jun-2024 18:00Broken Clouds31°C4 mph, SW76%10000m1008hPa58%
27-Jun-2024 21:00Light Rain28°C4 mph, S65%10000m1009hPa69%
28-Jun-2024 00:00Light Rain25°C4 mph, S79%10000m1011hPa85%
28-Jun-2024 03:00Light Rain24°C7 mph, S100%10000m1010hPa90%
28-Jun-2024 06:00Overcast Clouds24°C7 mph, S100%10000m1011hPa90%
28-Jun-2024 09:00Overcast Clouds27°C9 mph, SW99%10000m1012hPa74%
28-Jun-2024 12:00Overcast Clouds33°C9 mph, SW99%10000m1010hPa53%
28-Jun-2024 15:00Broken Clouds34°C7 mph, SW63%10000m1008hPa46%
28-Jun-2024 18:00Broken Clouds30°C4 mph, SW67%10000m1009hPa61%
28-Jun-2024 21:00Light Rain28°C7 mph, SW99%10000m1011hPa69%
29-Jun-2024 00:00Light Rain24°C4 mph, S98%9308m1012hPa87%
29-Jun-2024 03:00Light Rain24°C7 mph, S100%10000m1010hPa87%
29-Jun-2024 06:00Overcast Clouds23°C7 mph, S100%10000m1011hPa89%
29-Jun-2024 09:00Overcast Clouds28°C7 mph, S89%10000m1012hPa69%
29-Jun-2024 12:00Broken Clouds33°C7 mph, SW68%10000m1010hPa48%
29-Jun-2024 15:00Broken Clouds35°C4 mph, SW71%10000m1008hPa41%
29-Jun-2024 18:00Broken Clouds31°C2 mph, W71%10000m1008hPa55%
29-Jun-2024 21:00Broken Clouds29°C9 mph, SW81%10000m1010hPa61%
30-Jun-2024 00:00Light Rain25°C9 mph, SW59%10000m1011hPa84%
30-Jun-2024 03:00Light Rain23°C7 mph, S100%10000m1011hPa92%
30-Jun-2024 06:00Light Rain23°C9 mph, S100%10000m1013hPa92%
30-Jun-2024 09:00Overcast Clouds25°C7 mph, SW100%10000m1013hPa79%
30-Jun-2024 12:00Overcast Clouds28°C2 mph, S100%10000m1013hPa65%
30-Jun-2024 15:00Overcast Clouds30°C2 mph, W100%10000m1011hPa56%
30-Jun-2024 18:00Overcast Clouds28°C2 mph, W100%10000m1011hPa67%
30-Jun-2024 21:00Overcast Clouds26°C4 mph, W92%10000m1012hPa75%